createdAt,value
2023-04-30T00:02:16.310Z,5.20
2023-04-30T00:04:42.768Z,5.00
2023-04-30T00:07:09.172Z,5.88
2023-04-30T00:09:35.601Z,5.25
2023-04-30T00:12:02.021Z,4.75
2023-04-30T00:14:28.510Z,5.47
2023-04-30T00:16:54.945Z,5.97
2023-04-30T00:19:21.430Z,5.38
2023-04-30T00:21:47.860Z,5.88
2023-04-30T00:24:14.300Z,5.80
2023-04-30T00:26:40.917Z,5.18
2023-04-30T00:29:07.464Z,5.18
2023-04-30T00:31:34.007Z,5.97
2023-04-30T00:34:00.488Z,5.28
2023-04-30T00:36:26.931Z,5.53
2023-04-30T00:38:54.205Z,5.43
2023-04-30T00:41:21.131Z,6.35
2023-04-30T00:43:47.618Z,5.40
2023-04-30T00:46:14.541Z,6.15
2023-04-30T00:48:41.105Z,5.57
2023-04-30T00:51:07.916Z,6.30
2023-04-30T00:53:35.010Z,6.93
2023-04-30T00:56:01.525Z,6.20
2023-04-30T00:58:28.090Z,6.18
2023-04-30T01:00:54.715Z,6.35
2023-04-30T01:03:22.926Z,6.53
2023-04-30T01:05:50.215Z,6.18
2023-04-30T01:08:16.885Z,6.30
2023-04-30T01:10:56.317Z,6.32
2023-04-30T01:13:32.303Z,6.57
2023-04-30T01:16:35.857Z,6.38
2023-04-30T01:19:09.015Z,6.10
2023-04-30T01:21:37.423Z,7.03
2023-04-30T01:24:24.597Z,6.50
2023-04-30T01:27:13.162Z,6.20
2023-04-30T01:29:42.181Z,7.18
2023-04-30T01:32:10.929Z,6.80
2023-04-30T01:34:37.601Z,5.95
2023-04-30T01:37:24.677Z,6.43
2023-04-30T01:42:52.319Z,6.05
2023-04-30T01:45:36.181Z,7.47
2023-04-30T01:48:27.887Z,7.00
2023-04-30T01:51:05.759Z,7.05
2023-04-30T01:53:44.548Z,7.57
2023-04-30T01:56:28.354Z,7.10
2023-04-30T01:58:55.026Z,6.65
2023-04-30T02:01:39.854Z,6.93
2023-04-30T02:04:06.524Z,6.93
2023-04-30T02:06:33.105Z,7.75
2023-04-30T02:09:05.262Z,7.18
2023-04-30T02:11:32.079Z,7.38
2023-04-30T02:13:58.587Z,7.47
2023-04-30T02:16:25.597Z,7.45
2023-04-30T02:18:52.147Z,8.40
2023-04-30T02:21:19.298Z,7.63
2023-04-30T02:23:47.270Z,7.25
2023-04-30T02:26:13.819Z,8.07
2023-04-30T02:28:40.381Z,7.78
2023-04-30T02:31:06.802Z,7.68
2023-04-30T02:33:33.489Z,8.05
2023-04-30T02:36:00.544Z,8.00
2023-04-30T02:38:27.143Z,7.97
2023-04-30T02:40:53.655Z,8.50
2023-04-30T02:43:20.107Z,8.07
2023-04-30T02:45:46.597Z,8.05
2023-04-30T02:48:13.481Z,7.32
2023-04-30T02:50:39.909Z,7.80
2023-04-30T02:53:06.364Z,7.72
2023-04-30T02:55:33.007Z,8.25
2023-04-30T02:57:59.709Z,8.20
2023-04-30T03:00:26.447Z,7.80
2023-04-30T03:02:53.088Z,7.47
2023-04-30T03:05:19.644Z,7.57
2023-04-30T03:07:46.063Z,7.85
2023-04-30T03:10:12.457Z,7.22
2023-04-30T03:12:39.077Z,7.72
2023-04-30T03:15:06.232Z,7.55
2023-04-30T03:17:32.704Z,7.97
2023-04-30T03:19:59.143Z,6.63
2023-04-30T03:22:26.649Z,8.18
2023-04-30T03:24:53.152Z,7.93
2023-04-30T03:27:19.796Z,7.15
2023-04-30T03:29:46.382Z,8.98
2023-04-30T03:32:12.858Z,7.40
2023-04-30T03:34:39.390Z,8.10
2023-04-30T03:37:05.812Z,8.55
2023-04-30T03:39:32.237Z,6.68
2023-04-30T03:41:58.718Z,7.30
2023-04-30T03:44:25.141Z,8.00
2023-04-30T03:46:51.577Z,7.68
2023-04-30T03:49:18.027Z,6.93
2023-04-30T03:51:44.454Z,7.45
2023-04-30T03:54:10.899Z,7.70
2023-04-30T03:56:38.047Z,7.32
2023-04-30T03:59:05.967Z,7.28
2023-04-30T04:01:32.894Z,6.68
2023-04-30T04:03:59.620Z,7.07
2023-04-30T04:06:26.871Z,6.28
2023-04-30T04:08:53.363Z,6.35
2023-04-30T04:11:21.071Z,6.32
2023-04-30T04:13:47.525Z,6.05
2023-04-30T04:16:14.203Z,6.68
2023-04-30T04:18:40.782Z,6.90
2023-04-30T04:21:07.685Z,6.53
2023-04-30T04:23:34.531Z,5.97
2023-04-30T04:26:01.561Z,5.70
2023-04-30T04:28:28.516Z,6.38
2023-04-30T04:30:55.406Z,6.20
2023-04-30T04:33:21.889Z,6.13
2023-04-30T04:35:48.321Z,6.50
2023-04-30T04:38:15.313Z,5.88
2023-04-30T04:40:42.209Z,5.95
2023-04-30T04:43:08.638Z,5.82
2023-04-30T04:45:35.835Z,5.55
2023-04-30T04:48:02.616Z,6.43
2023-04-30T04:50:29.052Z,5.82
2023-04-30T04:52:55.507Z,5.50
2023-04-30T04:55:22.099Z,5.72
2023-04-30T04:57:48.606Z,6.05
2023-04-30T05:00:15.061Z,5.28
2023-04-30T05:02:42.278Z,5.75
2023-04-30T05:05:10.374Z,5.47
2023-04-30T05:07:36.805Z,5.97
2023-04-30T05:10:03.348Z,6.00
2023-04-30T05:12:30.159Z,5.57
2023-04-30T05:14:56.563Z,4.97
2023-04-30T05:17:23.086Z,5.15
2023-04-30T05:19:50.660Z,5.43
2023-04-30T05:22:17.463Z,5.93
2023-04-30T05:24:43.988Z,4.97
2023-04-30T05:27:10.448Z,5.05
2023-04-30T05:29:36.875Z,5.28
2023-04-30T05:32:03.606Z,5.05
2023-04-30T05:34:30.175Z,4.65
2023-04-30T05:36:56.711Z,5.25
2023-04-30T05:39:23.131Z,5.68
2023-04-30T05:41:50.706Z,4.47
2023-04-30T05:44:18.022Z,5.60
2023-04-30T05:46:44.477Z,5.55
2023-04-30T05:49:11.280Z,5.35
2023-04-30T05:51:37.741Z,5.03
2023-04-30T05:54:04.164Z,5.00
2023-04-30T05:56:30.597Z,4.22
2023-04-30T05:58:57.012Z,5.68
2023-04-30T06:01:23.638Z,4.75
2023-04-30T06:03:50.402Z,4.78
2023-04-30T06:06:16.831Z,4.93
2023-04-30T06:08:45.285Z,4.50
2023-04-30T06:11:12.967Z,4.18
2023-04-30T06:13:39.906Z,4.28
2023-04-30T06:16:08.226Z,4.15
2023-04-30T06:18:34.960Z,4.45
2023-04-30T06:21:01.402Z,4.35
2023-04-30T06:23:27.848Z,4.15
2023-04-30T06:25:54.292Z,4.60
2023-04-30T06:28:21.222Z,4.93
2023-04-30T06:30:47.772Z,4.65
2023-04-30T06:33:14.292Z,5.18
2023-04-30T06:35:40.712Z,3.97
2023-04-30T06:38:07.122Z,4.35
2023-04-30T06:40:34.028Z,4.45
2023-04-30T06:43:00.466Z,10.70
2023-04-30T06:45:26.893Z,7.78
2023-04-30T06:47:53.436Z,5.60
2023-04-30T06:50:21.659Z,4.38
2023-04-30T06:52:48.173Z,24.10
2023-04-30T06:55:14.639Z,6.97
2023-04-30T06:57:41.119Z,5.28
2023-04-30T07:00:08.868Z,13.15
2023-04-30T07:02:36.113Z,5.35
2023-04-30T07:05:03.081Z,4.20
2023-04-30T07:07:29.612Z,4.15
2023-04-30T07:09:56.557Z,4.65
2023-04-30T07:12:23.718Z,6.10
2023-04-30T07:14:50.270Z,6.38
2023-04-30T07:17:16.936Z,3.90
2023-04-30T07:19:43.635Z,3.97
2023-04-30T07:22:10.137Z,3.78
2023-04-30T07:24:36.612Z,4.18
2023-04-30T07:27:03.974Z,3.78
2023-04-30T07:29:30.669Z,3.80
2023-04-30T07:31:57.167Z,4.10
2023-04-30T07:34:24.356Z,4.03
2023-04-30T07:36:51.102Z,3.85
2023-04-30T07:39:17.879Z,3.92
2023-04-30T07:41:44.338Z,3.25
2023-04-30T07:44:11.958Z,3.60
2023-04-30T07:46:38.598Z,4.00
2023-04-30T07:49:05.129Z,3.55
2023-04-30T07:51:32.903Z,3.35
2023-04-30T07:54:00.281Z,3.50
2023-04-30T07:56:26.774Z,4.03
2023-04-30T07:58:53.189Z,3.72
2023-04-30T08:01:19.654Z,3.13
2023-04-30T08:03:46.571Z,3.40
2023-04-30T08:06:13.196Z,4.00
2023-04-30T08:08:39.748Z,3.53
2023-04-30T08:11:06.218Z,3.80
2023-04-30T08:13:32.653Z,4.38
2023-04-30T08:15:59.069Z,3.10
2023-04-30T08:18:25.518Z,3.67
2023-04-30T08:20:52.109Z,3.22
2023-04-30T08:23:18.576Z,3.03
2023-04-30T08:25:44.986Z,3.25
2023-04-30T08:28:11.508Z,4.00
2023-04-30T08:30:38.500Z,3.20
2023-04-30T08:33:04.964Z,3.30
2023-04-30T08:35:31.450Z,3.20
2023-04-30T08:37:58.306Z,3.03
2023-04-30T08:40:43.793Z,2.88
2023-04-30T08:43:15.371Z,2.78
2023-04-30T08:45:42.464Z,3.38
2023-04-30T08:48:13.936Z,2.85
2023-04-30T08:50:40.546Z,2.75
2023-04-30T08:53:08.482Z,3.25
2023-04-30T08:55:35.131Z,2.85
2023-04-30T08:58:01.713Z,3.30
2023-04-30T09:00:28.322Z,2.58
2023-04-30T09:02:54.985Z,2.70
2023-04-30T09:05:21.483Z,2.53
2023-04-30T09:10:22.661Z,2.20
2023-04-30T09:13:05.449Z,2.80
2023-04-30T09:15:33.483Z,2.33
2023-04-30T09:18:19.686Z,2.30
2023-04-30T09:21:01.787Z,2.78
2023-04-30T09:23:28.956Z,2.88
2023-04-30T09:25:56.553Z,2.72
2023-04-30T09:28:25.270Z,2.70
2023-04-30T09:30:52.301Z,2.85
2023-04-30T09:33:18.897Z,3.22
2023-04-30T09:35:45.483Z,2.47
2023-04-30T09:38:32.167Z,2.50
2023-04-30T09:41:00.346Z,2.80
2023-04-30T09:43:28.239Z,2.63
2023-04-30T09:45:54.652Z,2.85
2023-04-30T09:48:23.322Z,2.35
2023-04-30T09:50:51.474Z,2.30
2023-04-30T09:53:18.671Z,2.60
2023-04-30T09:55:48.012Z,2.90
2023-04-30T09:58:15.730Z,2.90
2023-04-30T10:00:43.458Z,2.78
2023-04-30T10:03:12.068Z,2.20
2023-04-30T10:05:42.674Z,2.03
2023-04-30T10:08:33.705Z,2.22
2023-04-30T10:11:05.239Z,1.95
2023-04-30T10:13:35.990Z,1.77
2023-04-30T10:16:08.767Z,2.35
2023-04-30T10:18:39.580Z,2.75
2023-04-30T10:21:11.980Z,2.42
2023-04-30T10:23:39.919Z,3.03
2023-04-30T10:26:06.734Z,2.50
2023-04-30T10:28:33.208Z,2.65
2023-04-30T10:31:00.148Z,2.53
2023-04-30T10:33:42.302Z,2.83
2023-04-30T10:36:14.973Z,2.33
2023-04-30T10:38:41.556Z,2.60
2023-04-30T10:41:09.558Z,3.10
2023-04-30T10:43:36.504Z,2.67
2023-04-30T10:46:04.116Z,2.30
2023-04-30T10:48:34.893Z,1.90
2023-04-30T10:51:01.507Z,2.25
2023-04-30T10:53:31.823Z,2.10
2023-04-30T10:56:07.226Z,1.80
2023-04-30T10:58:36.363Z,2.00
2023-04-30T11:01:13.510Z,1.77
2023-04-30T11:04:03.683Z,2.20
2023-04-30T11:06:54.970Z,1.80
2023-04-30T11:09:40.208Z,2.08
2023-04-30T11:12:20.437Z,2.10
2023-04-30T11:14:47.182Z,1.90
2023-04-30T11:17:23.114Z,2.20
2023-04-30T11:19:51.742Z,2.08
2023-04-30T11:22:22.041Z,1.90
2023-04-30T11:24:55.440Z,1.55
2023-04-30T11:27:29.391Z,1.75
2023-04-30T11:29:59.236Z,1.95
2023-04-30T11:32:32.668Z,1.80
2023-04-30T11:35:00.192Z,2.08
2023-04-30T11:37:32.651Z,1.90
2023-04-30T11:40:04.416Z,1.80
2023-04-30T11:42:31.424Z,1.70
2023-04-30T11:45:08.936Z,1.70
2023-04-30T11:47:40.338Z,1.80
2023-04-30T11:50:11.899Z,1.60
2023-04-30T11:52:39.405Z,2.08
2023-04-30T11:55:15.141Z,1.63
2023-04-30T11:57:46.480Z,1.73
2023-04-30T12:00:18.475Z,2.00
2023-04-30T12:02:48.450Z,1.75
2023-04-30T12:05:17.026Z,1.90
2023-04-30T12:08:00.788Z,2.20
2023-04-30T12:10:27.238Z,1.90
2023-04-30T12:12:54.675Z,2.10
2023-04-30T12:15:26.267Z,1.80
2023-04-30T12:18:00.406Z,1.60
2023-04-30T12:20:30.973Z,2.20
2023-04-30T12:22:58.667Z,1.88
2023-04-30T12:25:28.707Z,2.00
2023-04-30T12:27:55.203Z,1.88
2023-04-30T12:30:24.753Z,1.80
2023-04-30T12:32:53.561Z,2.08
2023-04-30T12:35:24.389Z,1.50
2023-04-30T12:38:02.190Z,1.80
2023-04-30T12:40:28.641Z,1.60
2023-04-30T12:43:03.451Z,1.73
2023-04-30T12:45:46.658Z,1.60
2023-04-30T12:48:15.074Z,1.90
2023-04-30T12:50:41.881Z,1.80
2023-04-30T12:53:08.833Z,1.55
2023-04-30T12:55:37.373Z,1.88
2023-04-30T12:58:07.573Z,1.92
2023-04-30T13:00:44.935Z,1.58
2023-04-30T13:03:12.806Z,1.95
2023-04-30T13:05:41.706Z,1.90
2023-04-30T13:08:09.258Z,1.80
2023-04-30T13:10:35.774Z,1.60
2023-04-30T13:13:02.269Z,1.73
2023-04-30T13:15:28.808Z,1.83
2023-04-30T13:17:55.824Z,1.80
2023-04-30T13:20:22.323Z,1.60
2023-04-30T13:22:48.876Z,1.85
2023-04-30T13:25:15.316Z,1.50
2023-04-30T13:27:41.756Z,1.83
2023-04-30T13:30:10.659Z,1.52
2023-04-30T13:32:37.323Z,1.58
2023-04-30T13:35:04.020Z,1.70
2023-04-30T13:37:31.294Z,1.27
2023-04-30T13:39:58.280Z,1.60
2023-04-30T13:42:25.750Z,1.63
2023-04-30T13:44:52.583Z,1.48
2023-04-30T13:47:19.682Z,1.45
2023-04-30T13:49:46.072Z,1.40
2023-04-30T13:52:12.578Z,1.75
2023-04-30T13:54:39.196Z,1.90
2023-04-30T13:57:06.342Z,1.52
2023-04-30T13:59:33.272Z,1.67
2023-04-30T14:01:59.758Z,1.52
2023-04-30T14:04:26.192Z,1.67
2023-04-30T14:06:56.427Z,1.77
2023-04-30T14:09:23.216Z,1.60
2023-04-30T14:11:49.908Z,1.60
2023-04-30T14:14:16.431Z,1.77
2023-04-30T14:16:44.319Z,1.88
2023-04-30T14:19:11.060Z,1.52
2023-04-30T14:21:37.487Z,1.60
2023-04-30T14:24:04.103Z,1.52
2023-04-30T14:26:30.814Z,1.98
2023-04-30T14:28:57.601Z,1.92
2023-04-30T14:31:24.066Z,1.80
2023-04-30T14:33:50.535Z,1.55
2023-04-30T14:36:17.183Z,1.70
2023-04-30T14:38:44.637Z,1.65
2023-04-30T14:41:12.627Z,1.60
2023-04-30T14:43:39.713Z,1.30
2023-04-30T14:46:06.676Z,1.20
2023-04-30T14:48:33.461Z,1.88
2023-04-30T14:51:01.265Z,1.50
2023-04-30T14:53:27.867Z,1.90
2023-04-30T14:55:54.324Z,1.60
2023-04-30T14:58:20.936Z,1.63
2023-04-30T15:00:48.351Z,1.50
2023-04-30T15:03:15.010Z,1.38
2023-04-30T15:05:41.525Z,1.52
2023-04-30T15:08:08.099Z,1.40
2023-04-30T15:10:35.340Z,1.73
2023-04-30T15:13:04.577Z,1.30
2023-04-30T15:15:31.310Z,1.60
2023-04-30T15:17:58.449Z,1.70
2023-04-30T15:20:25.093Z,1.85
2023-04-30T15:22:53.716Z,1.40
2023-04-30T15:25:21.906Z,1.70
2023-04-30T15:27:48.455Z,1.50
2023-04-30T15:30:14.953Z,1.75
2023-04-30T15:32:41.613Z,1.42
2023-04-30T15:35:08.695Z,1.55
2023-04-30T15:37:36.663Z,1.73
2023-04-30T15:40:04.822Z,2.13
2023-04-30T15:42:31.553Z,1.80
2023-04-30T15:44:57.973Z,1.80
2023-04-30T15:47:58.088Z,1.60
2023-04-30T15:50:25.045Z,1.80
2023-04-30T15:52:51.517Z,2.17
2023-04-30T15:55:17.971Z,2.10
2023-04-30T15:57:44.712Z,1.60
2023-04-30T16:00:14.471Z,2.90
2023-04-30T16:02:41.064Z,3.00
2023-04-30T16:05:08.107Z,2.00
2023-04-30T16:07:35.147Z,1.80
2023-04-30T16:10:02.871Z,1.80
2023-04-30T16:12:29.346Z,1.60
2023-04-30T16:14:55.813Z,1.67
2023-04-30T16:17:22.335Z,1.80
2023-04-30T16:19:48.837Z,2.05
2023-04-30T16:22:17.029Z,2.10
2023-04-30T16:24:43.423Z,1.90
2023-04-30T16:27:09.871Z,1.50
2023-04-30T16:29:36.291Z,1.75
2023-04-30T16:32:02.874Z,2.20
2023-04-30T16:34:29.382Z,1.98
2023-04-30T16:36:56.124Z,4.43
2023-04-30T16:39:22.610Z,2.25
2023-04-30T16:41:49.078Z,1.95
2023-04-30T16:44:15.516Z,2.33
2023-04-30T16:46:41.926Z,2.90
2023-04-30T16:49:08.423Z,2.75
2023-04-30T16:51:35.045Z,2.22
2023-04-30T16:54:01.525Z,2.50
2023-04-30T16:56:28.118Z,1.98
2023-04-30T16:58:54.628Z,1.95
2023-04-30T17:01:21.134Z,2.88
2023-04-30T17:03:47.830Z,2.38
2023-04-30T17:06:14.560Z,2.35
2023-04-30T17:08:41.060Z,2.30
2023-04-30T17:11:07.789Z,2.05
2023-04-30T17:13:34.285Z,1.92
2023-04-30T17:16:01.988Z,2.35
2023-04-30T17:18:28.811Z,2.50
2023-04-30T17:20:55.306Z,2.40
2023-04-30T17:23:21.943Z,2.00
2023-04-30T17:25:48.480Z,2.25
2023-04-30T17:28:14.904Z,2.08
2023-04-30T17:30:44.402Z,2.28
2023-04-30T17:33:10.934Z,2.03
2023-04-30T17:35:37.522Z,2.45
2023-04-30T17:38:03.984Z,2.22
2023-04-30T17:40:31.679Z,2.22
2023-04-30T17:43:01.264Z,2.53
2023-04-30T17:45:27.823Z,2.45
2023-04-30T17:47:54.425Z,3.20
2023-04-30T17:50:21.156Z,3.40
2023-04-30T17:52:48.140Z,2.55
2023-04-30T17:55:14.585Z,2.63
2023-04-30T17:57:41.006Z,2.83
2023-04-30T18:00:08.368Z,2.55
2023-04-30T18:02:40.855Z,2.38
2023-04-30T18:05:07.718Z,2.90
2023-04-30T18:07:34.246Z,2.42
2023-04-30T18:10:00.661Z,3.95
2023-04-30T18:12:27.170Z,2.70
2023-04-30T18:14:53.583Z,2.40
2023-04-30T18:17:20.008Z,2.70
2023-04-30T18:19:48.629Z,2.55
2023-04-30T18:22:15.229Z,2.50
2023-04-30T18:24:42.397Z,2.38
2023-04-30T18:27:09.369Z,2.65
2023-04-30T18:29:36.441Z,2.58
2023-04-30T18:32:03.023Z,3.00
2023-04-30T18:34:29.595Z,3.45
2023-04-30T18:36:56.484Z,3.22
2023-04-30T18:39:22.949Z,2.83
2023-04-30T18:41:49.501Z,2.40
2023-04-30T18:44:16.394Z,2.38
2023-04-30T18:46:42.999Z,2.25
2023-04-30T18:49:09.654Z,2.20
2023-04-30T18:51:37.768Z,2.40
2023-04-30T18:54:04.385Z,2.25
2023-04-30T18:56:30.790Z,2.08
2023-04-30T18:58:57.635Z,2.25
2023-04-30T19:01:27.211Z,2.35
2023-04-30T19:03:54.028Z,2.10
2023-04-30T19:06:20.565Z,1.98
2023-04-30T19:08:47.315Z,2.10
2023-04-30T19:11:14.004Z,2.30
2023-04-30T19:13:40.528Z,2.35
2023-04-30T19:16:06.987Z,2.13
2023-04-30T19:18:34.985Z,1.90
2023-04-30T19:21:02.208Z,2.40
2023-04-30T19:23:32.435Z,1.98
2023-04-30T19:25:59.530Z,2.17
2023-04-30T19:28:26.422Z,2.25
2023-04-30T19:30:56.485Z,2.25
2023-04-30T19:33:24.108Z,2.35
2023-04-30T19:35:53.233Z,2.42
2023-04-30T19:38:20.194Z,2.00
2023-04-30T19:40:48.519Z,2.58
2023-04-30T19:43:15.433Z,2.33
2023-04-30T19:46:08.314Z,2.47
2023-04-30T19:48:34.862Z,2.50
2023-04-30T19:51:04.252Z,2.55
2023-04-30T19:53:31.301Z,2.55
2023-04-30T19:55:57.749Z,2.42
2023-04-30T19:58:24.259Z,2.30
2023-04-30T20:00:50.663Z,2.40
2023-04-30T20:03:17.891Z,2.47
2023-04-30T20:05:44.600Z,2.75
2023-04-30T20:08:11.286Z,2.53
2023-04-30T20:10:38.680Z,2.50
2023-04-30T20:13:06.545Z,2.42
2023-04-30T20:15:33.539Z,2.90
2023-04-30T20:18:03.571Z,2.45
2023-04-30T20:20:30.233Z,2.83
2023-04-30T20:22:57.071Z,2.25
2023-04-30T20:25:29.424Z,2.53
2023-04-30T20:27:56.397Z,2.55
2023-04-30T20:30:23.907Z,2.58
2023-04-30T20:32:50.373Z,2.50
2023-04-30T20:35:17.318Z,2.17
2023-04-30T20:37:43.734Z,2.67
2023-04-30T20:40:10.570Z,2.40
2023-04-30T20:42:38.620Z,2.60
2023-04-30T20:45:06.302Z,2.60
2023-04-30T20:47:32.815Z,2.47
2023-04-30T20:49:59.333Z,2.72
2023-04-30T20:52:26.130Z,2.40
2023-04-30T20:54:52.694Z,3.35
2023-04-30T20:57:19.184Z,2.75
2023-04-30T20:59:45.773Z,2.60
2023-04-30T21:02:12.275Z,3.15
2023-04-30T21:04:38.727Z,3.60
2023-04-30T21:07:05.605Z,2.70
2023-04-30T21:09:34.463Z,2.75
2023-04-30T21:12:05.269Z,2.70
2023-04-30T21:14:32.105Z,3.13
2023-04-30T21:16:59.440Z,3.38
2023-04-30T21:19:26.610Z,3.60
2023-04-30T21:21:53.164Z,2.63
2023-04-30T21:24:19.680Z,2.72
2023-04-30T21:26:46.128Z,2.90
2023-04-30T21:29:12.549Z,3.50
2023-04-30T21:31:38.975Z,2.70
2023-04-30T21:34:05.394Z,2.95
2023-04-30T21:36:31.811Z,3.25
2023-04-30T21:38:58.247Z,3.90
2023-04-30T21:41:25.183Z,3.60
2023-04-30T21:43:51.610Z,2.67
2023-04-30T21:46:18.114Z,2.90
2023-04-30T21:48:44.631Z,2.97
2023-04-30T21:51:16.781Z,2.72
2023-04-30T21:53:44.139Z,2.78
2023-04-30T21:56:11.390Z,3.10
2023-04-30T21:58:38.659Z,3.58
2023-04-30T22:01:05.647Z,2.95
2023-04-30T22:03:32.663Z,3.05
2023-04-30T22:05:59.928Z,2.92
2023-04-30T22:08:26.410Z,2.63
2023-04-30T22:10:58.738Z,4.25
2023-04-30T22:13:27.429Z,3.65
2023-04-30T22:15:54.229Z,3.38
2023-04-30T22:18:21.929Z,3.72
2023-04-30T22:20:49.480Z,4.20
2023-04-30T22:23:16.699Z,3.83
2023-04-30T22:25:43.433Z,3.42
2023-04-30T22:28:10.294Z,3.28
2023-04-30T22:30:37.696Z,3.63
2023-04-30T22:33:04.313Z,3.22
2023-04-30T22:35:32.629Z,3.50
2023-04-30T22:38:00.606Z,3.20
2023-04-30T22:40:28.000Z,3.25
2023-04-30T22:42:55.007Z,2.95
2023-04-30T22:45:21.847Z,2.85
2023-04-30T22:47:48.867Z,2.92
2023-04-30T22:50:15.479Z,3.05
2023-04-30T22:52:42.275Z,3.08
2023-04-30T22:55:09.566Z,3.30
2023-04-30T22:57:36.141Z,3.63
2023-04-30T23:00:04.093Z,4.20
2023-04-30T23:02:31.017Z,3.20
2023-04-30T23:04:58.116Z,3.60
2023-04-30T23:07:24.998Z,4.03
2023-04-30T23:09:51.988Z,3.60
2023-04-30T23:12:18.731Z,3.65
2023-04-30T23:14:45.496Z,3.22
2023-04-30T23:17:12.053Z,3.20
2023-04-30T23:19:38.779Z,2.67
2023-04-30T23:22:05.615Z,2.60
2023-04-30T23:24:35.276Z,4.13
2023-04-30T23:27:03.140Z,3.45
2023-04-30T23:29:29.967Z,3.55
2023-04-30T23:31:57.204Z,3.63
2023-04-30T23:34:23.781Z,3.35
2023-04-30T23:36:50.470Z,3.28
2023-04-30T23:39:17.002Z,3.53
2023-04-30T23:41:43.484Z,3.20
2023-04-30T23:44:10.205Z,3.03
2023-04-30T23:46:37.076Z,3.13
2023-04-30T23:49:03.863Z,2.90
2023-04-30T23:51:32.889Z,3.30
2023-04-30T23:53:59.787Z,3.08
2023-04-30T23:56:26.343Z,3.13
2023-04-30T23:58:52.909Z,3.10
